Time;durP1;ratioP1;P1;durP2;ratioP2;P2;SDS_P1;SDS_P2;PMS_P1;PMS_P2;Temp;Humidity;BMP_temperature;BMP_pressure;BME280_temperature;BME280_humidity;BME280_pressure;Samples;Min_cycle;Max_cycle;Signal;HPM_P1;HPM_P2
2022/07/01 00:01:57;;;;;;;4.38;3.80;;;;;;;;;;5028880;28;20411;-59
2022/07/01 00:04:26;;;;;;;7.22;3.42;;;;;;;;;;5031123;28;20120;-59
2022/07/01 00:06:52;;;;;;;;;;;;;;;;;;5029226;28;20029;-59
2022/07/01 00:09:17;;;;;;;5.60;3.08;;;;;;;;;;5027409;28;19939;-59
2022/07/01 00:11:42;;;;;;;4.85;3.20;;;;;;;;;;5030145;28;20033;-59
2022/07/01 00:14:08;;;;;;;5.25;3.10;;;;;;;;;;5029508;28;20050;-59
2022/07/01 00:16:33;;;;;;;4.25;3.08;;;;;;;;;;5032014;28;20036;-58
2022/07/01 00:18:58;;;;;;;3.20;2.65;;;;;;;;;;5031825;28;20068;-58
2022/07/01 00:21:24;;;;;;;5.03;3.08;;;;;;;;;;5022766;28;20533;-58
2022/07/01 00:23:49;;;;;;;4.85;3.20;;;;;;;;;;5030142;28;20052;-58
2022/07/01 00:26:15;;;;;;;4.05;3.13;;;;;;;;;;5030631;28;20017;-58
2022/07/01 00:28:40;;;;;;;3.75;2.83;;;;;;;;;;5025861;28;20064;-58
2022/07/01 00:31:05;;;;;;;4.57;2.60;;;;;;;;;;5025537;28;20032;-58
2022/07/01 00:33:31;;;;;;;7.00;2.55;;;;;;;;;;5027994;28;20026;-58
2022/07/01 00:35:58;;;;;;;6.72;2.67;;;;;;;;;;5028899;28;20036;-58
2022/07/01 00:38:24;;;;;;;2.75;2.38;;;;;;;;;;5028298;28;20109;-58
2022/07/01 00:40:55;;;;;;;5.45;2.30;;;;;;;;;;5032958;28;20108;-58
2022/07/01 00:43:24;;;;;;;4.38;2.05;;;;;;;;;;5028631;28;20038;-58
2022/07/01 00:45:51;;;;;;;3.42;2.00;;;;;;;;;;5017494;28;20542;-58
2022/07/01 00:48:19;;;;;;;3.28;2.22;;;;;;;;;;5024006;28;20112;-58
2022/07/01 00:50:44;;;;;;;3.58;1.80;;;;;;;;;;5023300;28;20022;-58
2022/07/01 00:53:11;;;;;;;2.40;1.80;;;;;;;;;;5022349;28;20510;-58
2022/07/01 00:55:36;;;;;;;2.60;1.63;;;;;;;;;;5027657;28;20040;-58
2022/07/01 00:58:02;;;;;;;2.45;1.52;;;;;;;;;;5030796;28;20029;-58
2022/07/01 01:00:27;;;;;;;3.03;2.10;;;;;;;;;;5027558;28;20086;-58
2022/07/01 01:02:53;;;;;;;2.97;1.58;;;;;;;;;;5030172;28;20021;-58
2022/07/01 01:05:20;;;;;;;2.90;1.60;;;;;;;;;;5027874;28;20039;-57
2022/07/01 01:07:47;;;;;;;3.63;1.42;;;;;;;;;;5027707;28;20064;-59
2022/07/01 01:10:14;;;;;;;2.63;1.35;;;;;;;;;;5029929;28;20051;-59
2022/07/01 01:12:40;;;;;;;1.65;1.40;;;;;;;;;;5024938;28;20172;-60
2022/07/01 01:15:06;;;;;;;2.05;1.40;;;;;;;;;;5032759;28;20033;-59
2022/07/01 01:17:31;;;;;;;1.50;1.30;;;;;;;;;;5028922;28;20040;-59
2022/07/01 01:19:57;;;;;;;2.20;1.33;;;;;;;;;;5030527;28;20029;-58
2022/07/01 01:22:22;;;;;;;3.60;1.60;;;;;;;;;;5028865;28;20049;-58
2022/07/01 01:24:47;;;;;;;1.30;1.20;;;;;;;;;;5032970;28;20483;-59
2022/07/01 01:27:14;;;;;;;1.13;1.02;;;;;;;;;;5029325;28;20036;-59
2022/07/01 01:29:39;;;;;;;2.28;1.20;;;;;;;;;;5033182;28;20059;-58
2022/07/01 01:32:06;;;;;;;1.30;1.15;;;;;;;;;;5028869;28;20037;-58
2022/07/01 01:34:36;;;;;;;1.98;1.02;;;;;;;;;;5025859;28;20032;-58
2022/07/01 01:37:03;;;;;;;1.70;1.60;;;;;;;;;;5021841;28;20025;-58
2022/07/01 01:39:29;;;;;;;1.35;0.93;;;;;;;;;;5025192;28;20103;-58
2022/07/01 01:41:54;;;;;;;1.27;1.08;;;;;;;;;;5022980;28;20471;-58
2022/07/01 01:44:20;;;;;;;3.00;1.00;;;;;;;;;;5027042;28;20036;-58
2022/07/01 01:46:45;;;;;;;1.52;1.02;;;;;;;;;;5029056;28;20394;-58
2022/07/01 01:49:11;;;;;;;3.15;1.20;;;;;;;;;;5023232;28;20506;-58
2022/07/01 01:51:37;;;;;;;3.00;1.40;;;;;;;;;;5026610;28;20041;-58
2022/07/01 01:54:02;;;;;;;1.10;1.00;;;;;;;;;;5020980;28;20034;-58
2022/07/01 01:56:29;;;;;;;2.40;1.02;;;;;;;;;;5028771;28;20372;-58
2022/07/01 01:58:54;;;;;;;1.48;1.27;;;;;;;;;;5028135;28;20458;-58
2022/07/01 02:01:20;;;;;;;1.40;1.30;;;;;;;;;;5029055;28;20041;-58
2022/07/01 02:03:47;;;;;;;2.60;1.20;;;;;;;;;;5028102;28;20101;-58
2022/07/01 02:06:14;;;;;;;1.30;1.20;;;;;;;;;;5027870;28;20030;-58
2022/07/01 02:08:41;;;;;;;3.50;1.40;;;;;;;;;;5028088;28;20038;-58
2022/07/01 02:11:07;;;;;;;2.33;1.10;;;;;;;;;;5025445;28;20172;-58
2022/07/01 02:13:33;;;;;;;1.98;1.10;;;;;;;;;;5026105;28;20491;-58
2022/07/01 02:15:59;;;;;;;3.78;1.20;;;;;;;;;;5030221;28;20557;-58
2022/07/01 02:18:24;;;;;;;3.13;1.00;;;;;;;;;;5030915;28;20068;-58
2022/07/01 02:20:50;;;;;;;1.65;1.20;;;;;;;;;;5025395;28;20025;-58
2022/07/01 02:23:16;;;;;;;2.47;1.52;;;;;;;;;;5028582;28;20032;-58
2022/07/01 02:25:42;;;;;;;2.90;1.13;;;;;;;;;;5021629;28;20474;-58
2022/07/01 02:28:08;;;;;;;2.35;1.10;;;;;;;;;;5027949;28;20036;-59
2022/07/01 02:30:36;;;;;;;46.25;28.08;;;;;;;;;;5026631;28;20572;-58
2022/07/01 02:33:03;;;;;;;102.43;93.10;;;;;;;;;;5030894;28;20034;-58
2022/07/01 02:35:29;;;;;;;325.50;56.47;;;;;;;;;;5026368;28;20388;-58
2022/07/01 02:37:54;;;;;;;1999.90;999.90;;;;;;;;;;5028107;28;20029;-58
2022/07/01 02:40:19;;;;;;;1999.90;999.90;;;;;;;;;;5025429;28;20034;-58
2022/07/01 02:42:46;;;;;;;1999.90;999.90;;;;;;;;;;5021021;28;20037;-58
2022/07/01 02:45:12;;;;;;;2.40;1.98;;;;;;;;;;5024168;28;20033;-58
2022/07/01 02:47:39;;;;;;;1.90;1.80;;;;;;;;;;5025860;28;21056;-58
2022/07/01 02:50:07;;;;;;;168.95;75.13;;;;;;;;;;5030968;28;20028;-58
2022/07/01 02:52:36;;;;;;;3.10;2.72;;;;;;;;;;5025835;28;20037;-58
2022/07/01 02:55:03;;;;;;;1999.90;999.90;;;;;;;;;;5030236;28;20482;-58
2022/07/01 02:57:29;;;;;;;1999.90;999.90;;;;;;;;;;5035655;28;20498;-58
2022/07/01 02:59:55;;;;;;;1999.90;999.90;;;;;;;;;;5030765;28;20129;-58
2022/07/01 03:02:20;;;;;;;1999.90;999.90;;;;;;;;;;5032595;28;20104;-58
2022/07/01 03:04:47;;;;;;;1999.90;999.90;;;;;;;;;;5029077;28;20087;-58
2022/07/01 03:07:13;;;;;;;1999.90;999.90;;;;;;;;;;5036053;28;20030;-58
2022/07/01 03:09:39;;;;;;;1999.90;999.90;;;;;;;;;;5033387;28;20052;-58
2022/07/01 03:12:24;;;;;;;297.52;21.58;;;;;;;;;;5029254;28;20036;-57
2022/07/01 03:14:57;;;;;;;3.22;1.42;;;;;;;;;;5029010;28;20032;-58
2022/07/01 03:17:28;;;;;;;2.13;1.50;;;;;;;;;;5038737;28;20036;-58
2022/07/01 03:19:54;;;;;;;4.18;1.58;;;;;;;;;;5026120;28;20053;-58
2022/07/01 03:22:21;;;;;;;2.58;2.10;;;;;;;;;;5024783;28;20446;-58
2022/07/01 03:24:50;;;;;;;2.00;1.63;;;;;;;;;;5027384;28;20811;-58
2022/07/01 03:27:16;;;;;;;1.67;1.40;;;;;;;;;;5034267;28;20144;-58
2022/07/01 03:29:42;;;;;;;1.60;1.38;;;;;;;;;;5030669;28;20124;-58
2022/07/01 03:32:09;;;;;;;1.80;1.65;;;;;;;;;;5032570;28;20116;-58
2022/07/01 03:34:46;;;;;;;2.60;1.60;;;;;;;;;;5035873;28;20029;-57
2022/07/01 03:37:13;;;;;;;3.08;1.65;;;;;;;;;;5034842;28;20532;-58
2022/07/01 03:39:39;;;;;;;1.88;1.67;;;;;;;;;;5026893;28;20037;-58
2022/07/01 03:42:06;;;;;;;1.88;1.73;;;;;;;;;;5019466;28;20124;-58
2022/07/01 03:44:32;;;;;;;2.83;1.90;;;;;;;;;;5019776;28;20032;-58
2022/07/01 03:46:58;;;;;;;1.77;1.67;;;;;;;;;;5027318;28;20039;-58
2022/07/01 03:49:24;;;;;;;1.65;1.45;;;;;;;;;;5029325;28;20025;-58
2022/07/01 03:51:49;;;;;;;1.83;1.65;;;;;;;;;;5025582;28;20496;-58
2022/07/01 03:54:32;;;;;;;1.45;1.30;;;;;;;;;;5029024;28;20044;-58
2022/07/01 03:56:57;;;;;;;2.33;1.80;;;;;;;;;;5025818;28;20057;-58
2022/07/01 03:59:23;;;;;;;3.50;1.70;;;;;;;;;;5028969;28;20056;-58
2022/07/01 04:01:49;;;;;;;3.33;2.05;;;;;;;;;;5031099;28;20121;-58
2022/07/01 04:04:14;;;;;;;3.53;1.67;;;;;;;;;;5032024;28;20575;-58
2022/07/01 04:06:40;;;;;;;2.00;1.80;;;;;;;;;;5030026;28;20025;-58
2022/07/01 04:09:05;;;;;;;2.97;1.70;;;;;;;;;;5028054;28;20421;-57
2022/07/01 04:11:31;;;;;;;2.17;1.45;;;;;;;;;;5030913;28;20033;-58
2022/07/01 04:13:57;;;;;;;3.63;1.77;;;;;;;;;;5035626;28;20475;-57
2022/07/01 04:16:23;;;;;;;4.10;1.65;;;;;;;;;;5034130;28;20025;-57
2022/07/01 04:18:49;;;;;;;3.75;2.00;;;;;;;;;;5027233;28;20021;-57
2022/07/01 04:23:58;;;;;;;2.50;1.95;;;;;;;;;;5028783;28;20068;-57
2022/07/01 04:26:24;;;;;;;3.25;2.10;;;;;;;;;;5029943;28;20060;-58
2022/07/01 04:28:53;;;;;;;1.95;1.75;;;;;;;;;;5026398;28;20017;-57
2022/07/01 04:31:19;;;;;;;3.42;2.10;;;;;;;;;;5022810;28;20098;-57
2022/07/01 04:33:45;;;;;;;2.28;1.90;;;;;;;;;;5030612;28;20033;-57
2022/07/01 04:36:11;;;;;;;4.60;2.15;;;;;;;;;;5030170;28;20506;-57
2022/07/01 04:38:36;;;;;;;2.97;2.42;;;;;;;;;;5030740;28;20049;-57
2022/07/01 04:43:50;;;;;;;2.87;2.03;;;;;;;;;;5028973;28;20434;-57
2022/07/01 04:46:16;;;;;;;2.78;2.40;;;;;;;;;;5024675;28;20027;-57
2022/07/01 04:48:41;;;;;;;3.95;2.10;;;;;;;;;;5028281;28;20029;-57
2022/07/01 04:51:07;;;;;;;2.33;2.13;;;;;;;;;;5020835;28;20513;-57
2022/07/01 04:53:32;;;;;;;3.00;1.92;;;;;;;;;;5032784;28;20067;-57
2022/07/01 04:55:58;;;;;;;2.90;2.47;;;;;;;;;;5028038;28;20148;-57
2022/07/01 04:58:23;;;;;;;2.40;2.08;;;;;;;;;;5028034;28;20044;-57
2022/07/01 05:00:49;;;;;;;2.70;2.30;;;;;;;;;;5031378;28;20056;-57
2022/07/01 05:03:16;;;;;;;2.47;2.13;;;;;;;;;;5034531;28;20037;-58
2022/07/01 05:05:41;;;;;;;4.38;2.10;;;;;;;;;;5028576;28;20025;-58
2022/07/01 05:08:07;;;;;;;2.78;2.20;;;;;;;;;;5026509;28;20183;-58
2022/07/01 05:10:32;;;;;;;3.08;2.30;;;;;;;;;;5024959;28;20029;-58
2022/07/01 05:12:58;;;;;;;3.92;2.40;;;;;;;;;;5028396;28;20052;-59
2022/07/01 05:15:23;;;;;;;4.00;2.20;;;;;;;;;;5029676;28;20483;-59
2022/07/01 05:23:17;;;;;;;2.88;2.45;;;;;;;;;;5023892;28;20036;-59
2022/07/01 05:25:42;;;;;;;2.72;2.53;;;;;;;;;;5029257;28;20021;-59
2022/07/01 05:28:08;;;;;;;3.97;2.42;;;;;;;;;;5030012;28;20036;-59
2022/07/01 05:30:33;;;;;;;3.13;2.70;;;;;;;;;;5027867;28;20032;-58
2022/07/01 05:32:58;;;;;;;2.80;2.47;;;;;;;;;;5025039;28;20029;-59
2022/07/01 05:35:24;;;;;;;4.28;3.00;;;;;;;;;;5031903;28;20045;-59
2022/07/01 05:37:49;;;;;;;3.33;3.03;;;;;;;;;;5032136;28;20037;-59
2022/07/01 05:40:15;;;;;;;3.15;2.63;;;;;;;;;;5018710;28;20031;-58
2022/07/01 05:42:40;;;;;;;407.13;35.67;;;;;;;;;;5023534;28;20021;-59
2022/07/01 05:45:06;;;;;;;4.57;2.70;;;;;;;;;;5024632;28;20340;-59
2022/07/01 05:47:31;;;;;;;3.10;2.60;;;;;;;;;;5027085;28;20372;-59
2022/07/01 05:49:57;;;;;;;2.85;2.50;;;;;;;;;;5020230;28;20084;-58
2022/07/01 05:52:22;;;;;;;4.15;2.60;;;;;;;;;;5030121;28;20017;-58
2022/07/01 05:54:47;;;;;;;2.58;2.38;;;;;;;;;;5027082;28;20025;-58
2022/07/01 05:57:13;;;;;;;2.70;2.42;;;;;;;;;;5029324;28;20032;-59
2022/07/01 05:59:38;;;;;;;2.97;2.67;;;;;;;;;;5026436;28;20034;-59
2022/07/01 06:02:04;;;;;;;5.03;2.30;;;;;;;;;;5021205;28;20026;-60
2022/07/01 06:04:29;;;;;;;2.92;2.17;;;;;;;;;;5023168;28;20032;-59
2022/07/01 06:06:55;;;;;;;2.88;2.20;;;;;;;;;;5028394;28;20407;-59
2022/07/01 06:09:20;;;;;;;2.28;2.08;;;;;;;;;;5017985;28;20059;-57
2022/07/01 06:11:46;;;;;;;2.95;2.10;;;;;;;;;;5020959;28;20049;-59
2022/07/01 06:14:11;;;;;;;3.45;2.00;;;;;;;;;;5020035;28;20032;-59
2022/07/01 06:16:37;;;;;;;2.58;1.90;;;;;;;;;;5025858;28;20039;-59
2022/07/01 06:19:04;;;;;;;2.05;1.90;;;;;;;;;;5024558;28;20254;-59
2022/07/01 06:21:30;;;;;;;1.85;1.75;;;;;;;;;;5028395;28;20037;-59
2022/07/01 06:23:55;;;;;;;2.95;1.60;;;;;;;;;;5029523;28;20412;-59
2022/07/01 06:26:21;;;;;;;2.35;1.60;;;;;;;;;;5033907;28;20029;-59
2022/07/01 06:28:46;;;;;;;1.85;1.70;;;;;;;;;;5030612;28;20025;-60
2022/07/01 06:31:11;;;;;;;1.60;1.50;;;;;;;;;;5031967;28;20022;-60
2022/07/01 06:33:37;;;;;;;3.03;1.40;;;;;;;;;;5035361;28;20108;-60
2022/07/01 06:36:02;;;;;;;1.50;1.40;;;;;;;;;;5028602;28;20033;-60
2022/07/01 06:38:29;;;;;;;1.75;1.10;;;;;;;;;;5024439;28;20061;-59
2022/07/01 06:43:38;;;;;;;1.70;1.20;;;;;;;;;;5024207;28;20174;-59
2022/07/01 06:46:04;;;;;;;1.60;1.50;;;;;;;;;;5020160;28;20500;-59
2022/07/01 06:48:30;;;;;;;1.50;1.30;;;;;;;;;;5022160;28;20090;-59
2022/07/01 06:50:55;;;;;;;1.25;1.25;;;;;;;;;;5016544;28;20046;-59
2022/07/01 06:53:20;;;;;;;1.50;1.40;;;;;;;;;;5021884;28;20045;-59
2022/07/01 06:55:46;;;;;;;1.20;1.10;;;;;;;;;;5024836;28;20126;-59
2022/07/01 06:58:11;;;;;;;1.67;1.40;;;;;;;;;;5031478;28;20033;-59
2022/07/01 07:00:37;;;;;;;1.40;1.30;;;;;;;;;;5026434;28;20435;-58
2022/07/01 07:03:02;;;;;;;1.85;1.60;;;;;;;;;;5030172;28;20026;-59
2022/07/01 07:05:30;;;;;;;1.50;1.40;;;;;;;;;;5028772;28;20029;-59
2022/07/01 07:07:56;;;;;;;2.20;1.48;;;;;;;;;;5030637;28;20053;-59
2022/07/01 07:10:22;;;;;;;1.38;1.27;;;;;;;;;;5027768;28;22225;-59
2022/07/01 07:12:47;;;;;;;2.03;1.30;;;;;;;;;;5024821;28;20112;-59
2022/07/01 07:15:13;;;;;;;2.97;1.60;;;;;;;;;;5032241;28;20437;-59
2022/07/01 07:17:38;;;;;;;1.52;1.40;;;;;;;;;;5025656;28;20068;-59
2022/07/01 07:20:04;;;;;;;2.15;1.55;;;;;;;;;;5028055;28;20036;-59
2022/07/01 07:22:29;;;;;;;1.73;1.45;;;;;;;;;;5031790;28;20025;-59
2022/07/01 07:24:55;;;;;;;2.92;1.80;;;;;;;;;;5026273;28;20480;-59
2022/07/01 07:27:20;;;;;;;3.22;1.83;;;;;;;;;;5028480;28;20029;-59
2022/07/01 07:29:46;;;;;;;1.55;1.45;;;;;;;;;;5025504;28;20076;-59
2022/07/01 07:32:11;;;;;;;1.55;1.45;;;;;;;;;;5020937;28;20036;-59
2022/07/01 07:34:37;;;;;;;1.73;1.63;;;;;;;;;;5018394;28;20039;-59
2022/07/01 07:37:03;;;;;;;1.67;1.35;;;;;;;;;;5026916;28;20017;-59
2022/07/01 07:39:28;;;;;;;1.98;1.50;;;;;;;;;;5024901;28;20552;-59
2022/07/01 07:41:53;;;;;;;1.52;1.42;;;;;;;;;;5023657;28;20112;-59
2022/07/01 07:44:19;;;;;;;1.83;1.40;;;;;;;;;;5026102;28;20509;-59
2022/07/01 07:46:44;;;;;;;1.50;1.40;;;;;;;;;;5024831;28;20097;-59
2022/07/01 07:49:10;;;;;;;2.40;1.45;;;;;;;;;;5030198;28;20034;-59
2022/07/01 07:51:35;;;;;;;1.70;1.60;;;;;;;;;;5027150;28;20442;-59
2022/07/01 07:54:02;;;;;;;1.40;1.30;;;;;;;;;;5030046;28;20025;-59
2022/07/01 07:56:27;;;;;;;2.65;1.70;;;;;;;;;;5028291;28;20071;-59
2022/07/01 07:58:53;;;;;;;2.08;1.65;;;;;;;;;;5023931;28;20084;-58
2022/07/01 08:01:18;;;;;;;2.63;1.60;;;;;;;;;;5025207;28;20772;-59
2022/07/01 08:03:45;;;;;;;2.10;1.92;;;;;;;;;;5031073;28;20100;-59
2022/07/01 08:06:10;;;;;;;2.72;1.52;;;;;;;;;;5026719;28;20029;-59
2022/07/01 08:08:36;;;;;;;1.80;1.70;;;;;;;;;;5024702;28;20329;-59
2022/07/01 08:11:02;;;;;;;1.67;1.50;;;;;;;;;;5026402;28;20048;-58
2022/07/01 08:13:28;;;;;;;2.28;1.73;;;;;;;;;;5026815;28;20034;-58
2022/07/01 08:15:53;;;;;;;1.80;1.70;;;;;;;;;;5023965;28;20021;-58
2022/07/01 08:18:19;;;;;;;4.15;1.90;;;;;;;;;;5025737;28;20032;-58
2022/07/01 08:20:44;;;;;;;2.13;1.92;;;;;;;;;;5025419;28;20071;-58
2022/07/01 08:23:10;;;;;;;2.15;2.05;;;;;;;;;;5026196;28;20037;-59
2022/07/01 08:25:36;;;;;;;2.20;1.90;;;;;;;;;;5025959;28;20290;-59
2022/07/01 08:28:03;;;;;;;2.58;2.10;;;;;;;;;;5026742;28;20021;-59
2022/07/01 08:30:28;;;;;;;3.33;2.50;;;;;;;;;;5026775;28;20025;-58
2022/07/01 08:32:54;;;;;;;2.10;1.90;;;;;;;;;;5032700;28;20025;-59
2022/07/01 08:35:19;;;;;;;1.85;1.70;;;;;;;;;;5021265;28;20353;-58
2022/07/01 08:37:44;;;;;;;3.38;1.67;;;;;;;;;;5023485;28;20064;-58
2022/07/01 08:40:10;;;;;;;2.15;1.70;;;;;;;;;;5026487;28;20418;-58
2022/07/01 08:42:35;;;;;;;1.80;1.70;;;;;;;;;;5022546;28;20080;-59
2022/07/01 08:45:01;;;;;;;1.98;1.60;;;;;;;;;;5023796;28;20076;-58
2022/07/01 08:47:26;;;;;;;2.60;1.60;;;;;;;;;;5026463;28;20033;-58
2022/07/01 08:49:52;;;;;;;2.10;1.63;;;;;;;;;;5028216;28;20494;-57
2022/07/01 08:52:17;;;;;;;3.92;1.60;;;;;;;;;;5026510;28;20033;-58
2022/07/01 08:54:42;;;;;;;2.75;1.85;;;;;;;;;;5025415;28;20436;-58
2022/07/01 08:57:08;;;;;;;2.72;1.67;;;;;;;;;;5024648;28;20098;-58
2022/07/01 08:59:34;;;;;;;2.45;1.55;;;;;;;;;;5025211;28;20055;-58
2022/07/01 09:02:03;;;;;;;2.60;1.67;;;;;;;;;;5022703;28;20104;-57
2022/07/01 09:04:29;;;;;;;4.50;1.50;;;;;;;;;;5025016;28;20414;-58
2022/07/01 09:07:15;;;;;;;3.00;2.00;;;;;;;;;;5028916;28;20612;-58
2022/07/01 09:09:42;;;;;;;2.22;1.67;;;;;;;;;;5019393;28;20421;-58
2022/07/01 09:12:08;;;;;;;1.67;1.48;;;;;;;;;;5024809;28;20249;-58
2022/07/01 09:14:35;;;;;;;1.63;1.45;;;;;;;;;;5022337;28;20022;-58
2022/07/01 09:17:05;;;;;;;1.58;1.08;;;;;;;;;;5019764;28;20071;-58
2022/07/01 09:19:36;;;;;;;1.25;1.17;;;;;;;;;;5020235;28;20284;-58
2022/07/01 09:22:04;;;;;;;4.90;1.40;;;;;;;;;;5017477;28;20483;-58
2022/07/01 09:24:36;;;;;;;2.10;1.33;;;;;;;;;;5017161;28;20033;-59
2022/07/01 09:27:04;;;;;;;1.50;1.40;;;;;;;;;;5022194;28;20514;-59
2022/07/01 09:29:35;;;;;;;1.60;1.50;;;;;;;;;;5024333;28;20112;-59
2022/07/01 09:32:03;;;;;;;1.60;1.48;;;;;;;;;;5013642;28;20563;-59
2022/07/01 09:34:51;;;;;;;4.03;1.63;;;;;;;;;;5018964;28;20037;-59
2022/07/01 09:37:19;;;;;;;1.40;1.30;;;;;;;;;;5015969;28;20025;-59
2022/07/01 09:39:55;;;;;;;1999.90;999.90;;;;;;;;;;5020641;28;20040;-60
2022/07/01 09:42:23;;;;;;;1999.90;999.90;;;;;;;;;;5023684;28;20029;-59
2022/07/01 09:44:52;;;;;;;1999.90;999.90;;;;;;;;;;5023987;28;20288;-59
2022/07/01 09:47:17;;;;;;;1999.90;999.90;;;;;;;;;;5027396;28;20087;-59
2022/07/01 09:49:43;;;;;;;1999.90;999.90;;;;;;;;;;5026086;28;20033;-59
2022/07/01 09:52:09;;;;;;;1011.15;510.17;;;;;;;;;;5025074;28;20439;-59
2022/07/01 09:54:35;;;;;;;1999.90;999.90;;;;;;;;;;5024653;28;20025;-59
2022/07/01 09:57:02;;;;;;;1999.90;999.90;;;;;;;;;;5028789;28;20025;-59
2022/07/01 09:59:27;;;;;;;1999.90;999.90;;;;;;;;;;5023618;28;20043;-59
2022/07/01 10:01:53;;;;;;;1999.90;999.90;;;;;;;;;;5022574;28;20112;-59
2022/07/01 10:04:18;;;;;;;1999.90;999.90;;;;;;;;;;5020817;28;20479;-59
2022/07/01 10:07:15;;;;;;;1999.90;999.90;;;;;;;;;;5018346;28;20479;-59
2022/07/01 10:09:48;;;;;;;1999.90;999.90;;;;;;;;;;5023446;28;20038;-59
2022/07/01 10:12:29;;;;;;;1999.90;999.90;;;;;;;;;;5018539;28;20029;-58
2022/07/01 10:14:56;;;;;;;1999.90;999.90;;;;;;;;;;5020939;28;20028;-58
2022/07/01 10:17:36;;;;;;;1999.90;999.90;;;;;;;;;;5024549;28;20468;-58
2022/07/01 10:20:09;;;;;;;;;;;;;;;;;;5027033;28;20029;-58
2022/07/01 10:22:36;;;;;;;1999.90;999.90;;;;;;;;;;5023955;28;19917;-58
2022/07/01 10:25:40;;;;;;;1999.90;999.90;;;;;;;;;;5023849;28;20108;-58
2022/07/01 10:28:14;;;;;;;1999.90;999.90;;;;;;;;;;5027386;28;20255;-59
2022/07/01 10:31:04;;;;;;;1999.90;999.90;;;;;;;;;;5020869;28;20033;-59
2022/07/01 10:33:41;;;;;;;1999.90;999.90;;;;;;;;;;5020158;28;20025;-58
2022/07/01 10:36:11;;;;;;;1999.90;999.90;;;;;;;;;;5025061;28;20041;-59
2022/07/01 10:39:00;;;;;;;1999.90;999.90;;;;;;;;;;5020692;28;20033;-58
2022/07/01 10:41:26;;;;;;;1999.90;999.90;;;;;;;;;;5022305;28;20037;-59
2022/07/01 10:43:54;;;;;;;1999.90;999.90;;;;;;;;;;5024140;28;20017;-59
2022/07/01 10:46:41;;;;;;;1999.90;999.90;;;;;;;;;;5020030;28;20040;-58
2022/07/01 10:49:18;;;;;;;1999.90;999.90;;;;;;;;;;5024591;28;20098;-58
2022/07/01 10:51:58;;;;;;;1999.90;999.90;;;;;;;;;;5023315;28;20057;-58
2022/07/01 10:57:27;;;;;;;1999.90;999.90;;;;;;;;;;5025778;28;20527;-58
2022/07/01 10:59:53;;;;;;;1999.90;999.90;;;;;;;;;;5022516;28;20034;-58
2022/07/01 11:02:27;;;;;;;1999.90;999.90;;;;;;;;;;5026844;28;20034;-58
2022/07/01 11:05:09;;;;;;;1999.90;999.90;;;;;;;;;;5023560;28;20029;-58
2022/07/01 11:07:37;;;;;;;1999.90;999.90;;;;;;;;;;5027142;28;20036;-58
2022/07/01 11:10:05;;;;;;;1999.90;999.90;;;;;;;;;;5028527;28;20029;-58
2022/07/01 11:12:31;;;;;;;1999.90;999.90;;;;;;;;;;5026733;28;20036;-58
2022/07/01 11:15:01;;;;;;;1999.90;999.90;;;;;;;;;;5033211;28;20065;-58
2022/07/01 11:17:28;;;;;;;1999.90;999.90;;;;;;;;;;5028075;28;20025;-58
2022/07/01 11:19:57;;;;;;;1999.90;999.90;;;;;;;;;;5033762;28;20030;-57
2022/07/01 11:22:28;;;;;;;1999.90;999.90;;;;;;;;;;5016739;28;20167;-57
2022/07/01 11:24:55;;;;;;;1999.90;999.90;;;;;;;;;;5026928;28;20438;-59
2022/07/01 11:27:24;;;;;;;1999.90;999.90;;;;;;;;;;5035256;28;20396;-58
2022/07/01 11:30:08;;;;;;;1999.90;999.90;;;;;;;;;;5027025;28;20479;-59
2022/07/01 11:32:41;;;;;;;1999.90;999.90;;;;;;;;;;5026198;28;20160;-58
2022/07/01 11:39:21;;;;;;;1999.90;999.90;;;;;;;;;;5026035;28;20029;-57
2022/07/01 11:41:18;;;;;;;1999.90;999.90;;;;;;;;;;5021250;28;20068;-58
2022/07/01 11:43:44;;;;;;;1999.90;999.90;;;;;;;;;;5023880;28;20076;-57
2022/07/01 11:46:10;;;;;;;1999.90;999.90;;;;;;;;;;5027952;28;20072;-57
2022/07/01 11:48:40;;;;;;;1999.90;999.90;;;;;;;;;;5025339;28;20080;-57
2022/07/01 11:51:16;;;;;;;1999.90;999.90;;;;;;;;;;5026726;28;20523;-58
2022/07/01 11:53:43;;;;;;;1999.90;999.90;;;;;;;;;;5029213;28;20048;-57
2022/07/01 11:56:10;;;;;;;1999.90;999.90;;;;;;;;;;5028680;28;20037;-58
2022/07/01 11:58:52;;;;;;;1999.90;999.90;;;;;;;;;;5030788;28;20392;-59
2022/07/01 12:01:40;;;;;;;1999.90;999.90;;;;;;;;;;5022338;28;20391;-58
2022/07/01 12:04:08;;;;;;;1999.90;999.90;;;;;;;;;;5026400;28;20057;-58
2022/07/01 12:06:35;;;;;;;1999.90;999.90;;;;;;;;;;5027990;28;20021;-58
2022/07/01 12:09:01;;;;;;;1999.90;999.90;;;;;;;;;;5024956;28;20048;-58
2022/07/01 12:11:28;;;;;;;1999.90;999.90;;;;;;;;;;5025235;28;20040;-58
2022/07/01 12:13:56;;;;;;;1999.90;999.90;;;;;;;;;;5028261;28;20475;-58
2022/07/01 12:16:22;;;;;;;1999.90;999.90;;;;;;;;;;5030907;28;20058;-58
2022/07/01 12:18:56;;;;;;;1999.90;999.90;;;;;;;;;;5024336;28;20029;-57
2022/07/01 12:21:22;;;;;;;1999.90;999.90;;;;;;;;;;5022422;28;20033;-57
2022/07/01 12:24:06;;;;;;;1999.90;999.90;;;;;;;;;;5026026;28;20026;-58
2022/07/01 12:26:31;;;;;;;1999.90;999.90;;;;;;;;;;5026729;28;20671;-58
2022/07/01 12:28:57;;;;;;;1999.90;999.90;;;;;;;;;;5022645;28;20032;-59
2022/07/01 12:31:22;;;;;;;1999.90;999.90;;;;;;;;;;5030140;28;20029;-58
2022/07/01 12:33:50;;;;;;;1999.90;999.90;;;;;;;;;;5024086;28;20052;-58
2022/07/01 12:36:15;;;;;;;1999.90;999.90;;;;;;;;;;5027533;28;20494;-58
2022/07/01 12:38:42;;;;;;;1999.90;999.90;;;;;;;;;;5027734;28;20029;-58
2022/07/01 12:41:30;;;;;;;1999.90;999.90;;;;;;;;;;5025089;28;20091;-58
2022/07/01 12:43:55;;;;;;;1999.90;999.90;;;;;;;;;;5022636;28;20026;-58
2022/07/01 12:46:28;;;;;;;1999.90;999.90;;;;;;;;;;5029319;28;20557;-58
2022/07/01 12:48:54;;;;;;;1999.90;999.90;;;;;;;;;;5024632;28;20029;-58
2022/07/01 12:51:19;;;;;;;5.97;4.88;;;;;;;;;;5024855;28;20079;-59
2022/07/01 12:53:45;;;;;;;548.38;280.33;;;;;;;;;;5025451;28;20037;-58
2022/07/01 12:56:23;;;;;;;1999.90;999.90;;;;;;;;;;5026191;28;20041;-59
2022/07/01 12:58:48;;;;;;;1999.90;999.90;;;;;;;;;;5026748;28;20521;-59
2022/07/01 13:01:13;;;;;;;1999.90;999.90;;;;;;;;;;5028513;28;20036;-59
2022/07/01 13:03:40;;;;;;;1999.90;999.90;;;;;;;;;;5024886;28;20021;-59
2022/07/01 13:06:05;;;;;;;1999.90;999.90;;;;;;;;;;5026356;28;20041;-59
2022/07/01 13:08:31;;;;;;;1999.90;999.90;;;;;;;;;;5025898;28;20040;-59
2022/07/01 13:10:56;;;;;;;421.40;69.63;;;;;;;;;;5025579;28;20048;-59
2022/07/01 13:13:22;;;;;;;1999.90;999.90;;;;;;;;;;5027036;28;20048;-60
2022/07/01 13:15:47;;;;;;;1999.90;999.90;;;;;;;;;;5023004;28;20029;-59
2022/07/01 13:18:16;;;;;;;1999.90;999.90;;;;;;;;;;5024378;28;20044;-60
2022/07/01 13:20:43;;;;;;;1999.90;999.90;;;;;;;;;;5023159;28;20434;-59
2022/07/01 13:23:09;;;;;;;1999.90;999.90;;;;;;;;;;5023560;28;20040;-60
2022/07/01 13:25:34;;;;;;;1999.90;999.90;;;;;;;;;;5020785;28;20025;-60
2022/07/01 13:28:00;;;;;;;1999.90;999.90;;;;;;;;;;5019766;28;20510;-61
2022/07/01 13:30:25;;;;;;;1999.90;999.90;;;;;;;;;;5029900;28;20033;-60
2022/07/01 13:32:53;;;;;;;1999.90;999.90;;;;;;;;;;5023833;28;20561;-61
2022/07/01 13:35:19;;;;;;;1999.90;999.90;;;;;;;;;;5023282;28;20025;-59
2022/07/01 13:37:45;;;;;;;1999.90;999.90;;;;;;;;;;5023182;28;20036;-62
2022/07/01 13:40:10;;;;;;;1999.90;999.90;;;;;;;;;;5024496;28;20104;-60
2022/07/01 13:42:36;;;;;;;1999.90;999.90;;;;;;;;;;5024896;28;20046;-61
2022/07/01 13:45:03;;;;;;;1999.90;999.90;;;;;;;;;;5025466;28;20105;-58
2022/07/01 13:47:29;;;;;;;1999.90;999.90;;;;;;;;;;5024955;28;20084;-59
2022/07/01 13:49:55;;;;;;;1999.90;999.90;;;;;;;;;;5027551;28;20075;-59
2022/07/01 13:52:20;;;;;;;1999.90;999.90;;;;;;;;;;5027635;28;20037;-58
2022/07/01 13:54:46;;;;;;;1999.90;999.90;;;;;;;;;;5024344;28;20041;-59
2022/07/01 13:57:11;;;;;;;1999.90;999.90;;;;;;;;;;5029484;28;20056;-59
2022/07/01 13:59:37;;;;;;;1999.90;999.90;;;;;;;;;;5027255;28;20348;-59
2022/07/01 14:02:05;;;;;;;1999.90;999.90;;;;;;;;;;5026358;28;20123;-59
2022/07/01 14:04:30;;;;;;;1999.90;999.90;;;;;;;;;;5028200;28;20442;-58
2022/07/01 14:06:56;;;;;;;1999.90;999.90;;;;;;;;;;5027190;28;20033;-58
2022/07/01 14:09:21;;;;;;;1999.90;999.90;;;;;;;;;;5023023;28;20502;-58
2022/07/01 14:11:46;;;;;;;1999.90;999.90;;;;;;;;;;5026047;28;20462;-58
2022/07/01 14:14:12;;;;;;;1535.72;755.63;;;;;;;;;;5032836;28;20084;-58
2022/07/01 14:16:37;;;;;;;2.55;2.25;;;;;;;;;;5030952;28;20033;-58
2022/07/01 14:19:03;;;;;;;1.67;1.23;;;;;;;;;;5029547;28;20044;-58
2022/07/01 14:21:28;;;;;;;1.52;1.20;;;;;;;;;;5022229;28;20041;-58
2022/07/01 14:23:54;;;;;;;2.20;1.52;;;;;;;;;;5024672;28;20025;-59
2022/07/01 14:26:19;;;;;;;68.68;50.58;;;;;;;;;;5023947;28;20046;-59
2022/07/01 14:28:57;;;;;;;1.52;1.10;;;;;;;;;;5024343;28;20033;-59
2022/07/01 14:31:22;;;;;;;2.53;1.13;;;;;;;;;;5022748;28;20065;-58
2022/07/01 14:33:48;;;;;;;1.52;1.10;;;;;;;;;;5023362;28;20060;-59
2022/07/01 14:36:13;;;;;;;1.67;0.95;;;;;;;;;;5026023;28;20376;-59
2022/07/01 14:38:39;;;;;;;2.22;1.00;;;;;;;;;;5025082;28;20026;-59
2022/07/01 14:41:05;;;;;;;2.45;1.05;;;;;;;;;;5027139;28;20109;-59
2022/07/01 14:43:31;;;;;;;1.25;0.90;;;;;;;;;;5034941;28;20029;-59